sensor_id;sensor_type;location;lat;lon;timestamp;P1;durP1;ratioP1;P2;durP2;ratioP2
10934;SDS011;5520;45.752;4.874;2023-03-23T00:01:14;14.47;;;8.87;;
10934;SDS011;5520;45.752;4.874;2023-03-23T00:03:46;6.47;;;4.63;;
10934;SDS011;5520;45.752;4.874;2023-03-23T00:06:13;4.30;;;2.50;;
10934;SDS011;5520;45.752;4.874;2023-03-23T00:08:43;2.57;;;2.27;;
10934;SDS011;5520;45.752;4.874;2023-03-23T00:11:11;2.20;;;1.73;;
10934;SDS011;5520;45.752;4.874;2023-03-23T00:13:40;4.20;;;2.10;;
10934;SDS011;5520;45.752;4.874;2023-03-23T00:16:07;3.43;;;1.80;;
10934;SDS011;5520;45.752;4.874;2023-03-23T00:18:48;2.40;;;2.00;;
10934;SDS011;5520;45.752;4.874;2023-03-23T00:21:17;2.33;;;2.13;;
10934;SDS011;5520;45.752;4.874;2023-03-23T00:23:44;2.63;;;2.00;;
10934;SDS011;5520;45.752;4.874;2023-03-23T00:26:11;4.57;;;1.80;;
10934;SDS011;5520;45.752;4.874;2023-03-23T00:28:38;2.50;;;2.10;;
10934;SDS011;5520;45.752;4.874;2023-03-23T00:31:06;2.20;;;2.07;;
10934;SDS011;5520;45.752;4.874;2023-03-23T00:33:33;2.23;;;1.80;;
10934;SDS011;5520;45.752;4.874;2023-03-23T00:36:05;3.17;;;2.20;;
10934;SDS011;5520;45.752;4.874;2023-03-23T00:38:33;1.93;;;1.83;;
10934;SDS011;5520;45.752;4.874;2023-03-23T00:41:00;2.80;;;1.77;;
10934;SDS011;5520;45.752;4.874;2023-03-23T00:43:28;2.43;;;1.93;;
10934;SDS011;5520;45.752;4.874;2023-03-23T00:45:55;3.03;;;2.23;;
10934;SDS011;5520;45.752;4.874;2023-03-23T00:48:26;3.40;;;1.90;;
10934;SDS011;5520;45.752;4.874;2023-03-23T00:50:53;1.93;;;1.80;;
10934;SDS011;5520;45.752;4.874;2023-03-23T00:53:22;3.43;;;1.60;;
10934;SDS011;5520;45.752;4.874;2023-03-23T00:55:49;2.90;;;1.83;;
10934;SDS011;5520;45.752;4.874;2023-03-23T00:58:16;2.00;;;1.90;;
10934;SDS011;5520;45.752;4.874;2023-03-23T01:00:42;3.30;;;1.80;;
10934;SDS011;5520;45.752;4.874;2023-03-23T01:03:09;1.87;;;1.70;;
10934;SDS011;5520;45.752;4.874;2023-03-23T01:05:37;1.70;;;1.60;;
10934;SDS011;5520;45.752;4.874;2023-03-23T01:08:04;2.70;;;1.60;;
10934;SDS011;5520;45.752;4.874;2023-03-23T01:10:33;1.70;;;1.60;;
10934;SDS011;5520;45.752;4.874;2023-03-23T01:13:03;3.37;;;1.53;;
10934;SDS011;5520;45.752;4.874;2023-03-23T01:15:31;2.93;;;1.90;;
10934;SDS011;5520;45.752;4.874;2023-03-23T01:17:58;3.10;;;2.00;;
10934;SDS011;5520;45.752;4.874;2023-03-23T01:20:24;4.13;;;1.67;;
10934;SDS011;5520;45.752;4.874;2023-03-23T01:22:54;2.20;;;1.70;;
10934;SDS011;5520;45.752;4.874;2023-03-23T01:25:25;1.70;;;1.60;;
10934;SDS011;5520;45.752;4.874;2023-03-23T01:27:54;1.50;;;1.40;;
10934;SDS011;5520;45.752;4.874;2023-03-23T01:30:20;2.27;;;1.80;;
10934;SDS011;5520;45.752;4.874;2023-03-23T01:32:47;2.73;;;1.50;;
10934;SDS011;5520;45.752;4.874;2023-03-23T01:35:14;2.07;;;1.60;;
10934;SDS011;5520;45.752;4.874;2023-03-23T01:37:41;1.80;;;1.70;;
10934;SDS011;5520;45.752;4.874;2023-03-23T01:40:08;2.20;;;1.70;;
10934;SDS011;5520;45.752;4.874;2023-03-23T01:42:37;3.37;;;1.77;;
10934;SDS011;5520;45.752;4.874;2023-03-23T01:47:54;37.97;;;18.87;;
10934;SDS011;5520;45.752;4.874;2023-03-23T01:50:22;19.87;;;10.47;;
10934;SDS011;5520;45.752;4.874;2023-03-23T01:52:50;3.00;;;2.53;;
10934;SDS011;5520;45.752;4.874;2023-03-23T01:55:18;7.23;;;3.13;;
10934;SDS011;5520;45.752;4.874;2023-03-23T01:57:46;3.83;;;2.30;;
10934;SDS011;5520;45.752;4.874;2023-03-23T02:00:13;1.50;;;1.40;;
10934;SDS011;5520;45.752;4.874;2023-03-23T02:02:41;7.47;;;4.70;;
10934;SDS011;5520;45.752;4.874;2023-03-23T02:05:11;4.07;;;1.60;;
10934;SDS011;5520;45.752;4.874;2023-03-23T02:07:38;1.60;;;1.50;;
10934;SDS011;5520;45.752;4.874;2023-03-23T02:10:05;2.00;;;1.57;;
10934;SDS011;5520;45.752;4.874;2023-03-23T02:12:32;2.33;;;1.70;;
10934;SDS011;5520;45.752;4.874;2023-03-23T02:15:00;2.27;;;1.33;;
10934;SDS011;5520;45.752;4.874;2023-03-23T02:17:29;1.77;;;1.50;;
10934;SDS011;5520;45.752;4.874;2023-03-23T02:20:02;1.90;;;1.33;;
10934;SDS011;5520;45.752;4.874;2023-03-23T02:22:39;1.73;;;1.23;;
10934;SDS011;5520;45.752;4.874;2023-03-23T02:30:41;1.73;;;1.63;;
10934;SDS011;5520;45.752;4.874;2023-03-23T02:33:19;2.63;;;1.70;;
10934;SDS011;5520;45.752;4.874;2023-03-23T02:35:49;2.00;;;1.80;;
10934;SDS011;5520;45.752;4.874;2023-03-23T02:38:18;2.33;;;1.40;;
10934;SDS011;5520;45.752;4.874;2023-03-23T02:40:47;4.57;;;1.80;;
10934;SDS011;5520;45.752;4.874;2023-03-23T02:43:16;2.67;;;1.90;;
10934;SDS011;5520;45.752;4.874;2023-03-23T02:45:44;2.23;;;1.73;;
10934;SDS011;5520;45.752;4.874;2023-03-23T02:48:12;1.40;;;1.30;;
10934;SDS011;5520;45.752;4.874;2023-03-23T02:50:42;3.53;;;1.40;;
10934;SDS011;5520;45.752;4.874;2023-03-23T02:53:10;1.67;;;1.43;;
10934;SDS011;5520;45.752;4.874;2023-03-23T02:55:38;1.63;;;1.50;;
10934;SDS011;5520;45.752;4.874;2023-03-23T02:58:06;2.43;;;1.40;;
10934;SDS011;5520;45.752;4.874;2023-03-23T03:00:32;2.87;;;1.57;;
10934;SDS011;5520;45.752;4.874;2023-03-23T03:02:59;1.47;;;1.37;;
10934;SDS011;5520;45.752;4.874;2023-03-23T03:05:30;1.60;;;1.33;;
10934;SDS011;5520;45.752;4.874;2023-03-23T03:08:05;1.67;;;1.57;;
10934;SDS011;5520;45.752;4.874;2023-03-23T03:10:35;2.30;;;1.50;;
10934;SDS011;5520;45.752;4.874;2023-03-23T03:13:05;2.70;;;1.43;;
10934;SDS011;5520;45.752;4.874;2023-03-23T03:15:36;3.20;;;2.07;;
10934;SDS011;5520;45.752;4.874;2023-03-23T03:18:06;3.47;;;1.40;;
10934;SDS011;5520;45.752;4.874;2023-03-23T03:20:35;1.90;;;1.10;;
10934;SDS011;5520;45.752;4.874;2023-03-23T03:23:05;2.03;;;1.70;;
10934;SDS011;5520;45.752;4.874;2023-03-23T03:25:35;1.57;;;1.20;;
10934;SDS011;5520;45.752;4.874;2023-03-23T03:28:02;1.60;;;1.50;;
10934;SDS011;5520;45.752;4.874;2023-03-23T03:30:30;1.73;;;1.63;;
10934;SDS011;5520;45.752;4.874;2023-03-23T03:32:59;2.30;;;1.30;;
10934;SDS011;5520;45.752;4.874;2023-03-23T03:35:28;2.07;;;1.50;;
10934;SDS011;5520;45.752;4.874;2023-03-23T03:37:57;2.50;;;1.53;;
10934;SDS011;5520;45.752;4.874;2023-03-23T03:40:27;2.57;;;1.70;;
10934;SDS011;5520;45.752;4.874;2023-03-23T03:42:54;2.10;;;1.57;;
10934;SDS011;5520;45.752;4.874;2023-03-23T03:45:21;4.73;;;1.93;;
10934;SDS011;5520;45.752;4.874;2023-03-23T03:47:48;1.77;;;1.27;;
10934;SDS011;5520;45.752;4.874;2023-03-23T03:50:15;2.10;;;1.57;;
10934;SDS011;5520;45.752;4.874;2023-03-23T03:52:42;2.50;;;1.37;;
10934;SDS011;5520;45.752;4.874;2023-03-23T03:55:09;3.73;;;1.60;;
10934;SDS011;5520;45.752;4.874;2023-03-23T03:57:37;1.70;;;1.40;;
10934;SDS011;5520;45.752;4.874;2023-03-23T04:00:05;1.70;;;1.53;;
10934;SDS011;5520;45.752;4.874;2023-03-23T04:02:38;1.40;;;1.10;;
10934;SDS011;5520;45.752;4.874;2023-03-23T04:05:06;1.50;;;1.40;;
10934;SDS011;5520;45.752;4.874;2023-03-23T04:07:34;2.53;;;1.20;;
10934;SDS011;5520;45.752;4.874;2023-03-23T04:10:04;1.93;;;1.30;;
10934;SDS011;5520;45.752;4.874;2023-03-23T04:12:31;1.60;;;1.50;;
10934;SDS011;5520;45.752;4.874;2023-03-23T04:14:59;3.37;;;1.40;;
10934;SDS011;5520;45.752;4.874;2023-03-23T04:17:26;3.57;;;1.40;;
10934;SDS011;5520;45.752;4.874;2023-03-23T04:19:53;2.30;;;1.40;;
10934;SDS011;5520;45.752;4.874;2023-03-23T04:22:24;2.00;;;1.37;;
10934;SDS011;5520;45.752;4.874;2023-03-23T04:24:56;4.97;;;1.40;;
10934;SDS011;5520;45.752;4.874;2023-03-23T04:27:25;1.30;;;1.20;;
10934;SDS011;5520;45.752;4.874;2023-03-23T04:29:53;1.60;;;1.23;;
10934;SDS011;5520;45.752;4.874;2023-03-23T04:32:22;4.43;;;1.77;;
10934;SDS011;5520;45.752;4.874;2023-03-23T04:34:50;2.73;;;1.40;;
10934;SDS011;5520;45.752;4.874;2023-03-23T04:37:17;1.40;;;1.30;;
10934;SDS011;5520;45.752;4.874;2023-03-23T04:39:43;1.53;;;1.43;;
10934;SDS011;5520;45.752;4.874;2023-03-23T04:42:10;3.37;;;1.40;;
10934;SDS011;5520;45.752;4.874;2023-03-23T04:44:39;4.93;;;1.70;;
10934;SDS011;5520;45.752;4.874;2023-03-23T04:47:07;1.50;;;1.40;;
10934;SDS011;5520;45.752;4.874;2023-03-23T04:49:36;3.13;;;1.30;;
10934;SDS011;5520;45.752;4.874;2023-03-23T04:52:03;1.43;;;1.33;;
10934;SDS011;5520;45.752;4.874;2023-03-23T04:54:30;2.23;;;1.40;;
10934;SDS011;5520;45.752;4.874;2023-03-23T04:56:59;2.10;;;1.27;;
10934;SDS011;5520;45.752;4.874;2023-03-23T04:59:26;1.93;;;1.30;;
10934;SDS011;5520;45.752;4.874;2023-03-23T05:01:53;2.13;;;1.57;;
10934;SDS011;5520;45.752;4.874;2023-03-23T05:04:21;1.43;;;1.33;;
10934;SDS011;5520;45.752;4.874;2023-03-23T05:06:49;1.80;;;1.10;;
10934;SDS011;5520;45.752;4.874;2023-03-23T05:09:16;2.77;;;1.50;;
10934;SDS011;5520;45.752;4.874;2023-03-23T05:11:42;2.67;;;1.40;;
10934;SDS011;5520;45.752;4.874;2023-03-23T05:14:09;2.93;;;1.50;;
10934;SDS011;5520;45.752;4.874;2023-03-23T05:16:36;2.27;;;1.40;;
10934;SDS011;5520;45.752;4.874;2023-03-23T05:19:03;2.17;;;1.23;;
10934;SDS011;5520;45.752;4.874;2023-03-23T05:21:30;3.03;;;1.20;;
10934;SDS011;5520;45.752;4.874;2023-03-23T05:23:59;2.00;;;1.50;;
10934;SDS011;5520;45.752;4.874;2023-03-23T05:26:26;2.53;;;1.30;;
10934;SDS011;5520;45.752;4.874;2023-03-23T05:28:54;2.23;;;1.23;;
10934;SDS011;5520;45.752;4.874;2023-03-23T05:31:21;1.00;;;1.00;;
10934;SDS011;5520;45.752;4.874;2023-03-23T05:33:48;1.93;;;1.20;;
10934;SDS011;5520;45.752;4.874;2023-03-23T05:36:15;2.23;;;1.37;;
10934;SDS011;5520;45.752;4.874;2023-03-23T05:38:41;2.97;;;1.33;;
10934;SDS011;5520;45.752;4.874;2023-03-23T05:41:12;1.40;;;1.30;;
10934;SDS011;5520;45.752;4.874;2023-03-23T05:43:38;1.80;;;1.37;;
10934;SDS011;5520;45.752;4.874;2023-03-23T05:46:06;1.63;;;1.40;;
10934;SDS011;5520;45.752;4.874;2023-03-23T05:48:33;2.00;;;1.40;;
10934;SDS011;5520;45.752;4.874;2023-03-23T05:51:00;3.10;;;1.10;;
10934;SDS011;5520;45.752;4.874;2023-03-23T05:53:27;2.33;;;1.50;;
10934;SDS011;5520;45.752;4.874;2023-03-23T05:55:58;5.23;;;1.50;;
10934;SDS011;5520;45.752;4.874;2023-03-23T05:58:26;1.53;;;1.30;;
10934;SDS011;5520;45.752;4.874;2023-03-23T06:00:53;1.20;;;1.10;;
10934;SDS011;5520;45.752;4.874;2023-03-23T06:03:20;1.57;;;1.23;;
10934;SDS011;5520;45.752;4.874;2023-03-23T06:05:47;5.30;;;1.37;;
10934;SDS011;5520;45.752;4.874;2023-03-23T06:08:15;1.30;;;1.20;;
10934;SDS011;5520;45.752;4.874;2023-03-23T06:10:42;2.97;;;1.10;;
10934;SDS011;5520;45.752;4.874;2023-03-23T06:13:09;2.63;;;2.07;;
10934;SDS011;5520;45.752;4.874;2023-03-23T06:15:37;3.07;;;1.67;;
10934;SDS011;5520;45.752;4.874;2023-03-23T06:18:04;2.37;;;1.40;;
10934;SDS011;5520;45.752;4.874;2023-03-23T06:20:31;1.93;;;1.43;;
10934;SDS011;5520;45.752;4.874;2023-03-23T06:23:00;2.30;;;1.80;;
10934;SDS011;5520;45.752;4.874;2023-03-23T06:25:28;3.23;;;1.90;;
10934;SDS011;5520;45.752;4.874;2023-03-23T06:27:56;3.10;;;2.00;;
10934;SDS011;5520;45.752;4.874;2023-03-23T06:30:23;5.97;;;2.17;;
10934;SDS011;5520;45.752;4.874;2023-03-23T06:32:53;1.70;;;1.60;;
10934;SDS011;5520;45.752;4.874;2023-03-23T06:35:21;1.60;;;1.50;;
10934;SDS011;5520;45.752;4.874;2023-03-23T06:37:47;2.13;;;1.70;;
10934;SDS011;5520;45.752;4.874;2023-03-23T06:40:14;3.27;;;2.00;;
10934;SDS011;5520;45.752;4.874;2023-03-23T06:42:43;3.60;;;1.47;;
10934;SDS011;5520;45.752;4.874;2023-03-23T06:45:10;3.37;;;1.50;;
10934;SDS011;5520;45.752;4.874;2023-03-23T06:47:37;2.00;;;1.70;;
10934;SDS011;5520;45.752;4.874;2023-03-23T06:50:06;1.20;;;1.10;;
10934;SDS011;5520;45.752;4.874;2023-03-23T06:52:33;5.00;;;1.83;;
10934;SDS011;5520;45.752;4.874;2023-03-23T06:55:00;2.40;;;1.60;;
10934;SDS011;5520;45.752;4.874;2023-03-23T06:57:27;2.53;;;1.70;;
10934;SDS011;5520;45.752;4.874;2023-03-23T06:59:54;2.70;;;1.93;;
10934;SDS011;5520;45.752;4.874;2023-03-23T07:02:21;1.47;;;1.37;;
10934;SDS011;5520;45.752;4.874;2023-03-23T07:04:48;4.67;;;1.47;;
10934;SDS011;5520;45.752;4.874;2023-03-23T07:07:17;1.67;;;1.57;;
10934;SDS011;5520;45.752;4.874;2023-03-23T07:09:45;2.30;;;1.50;;
10934;SDS011;5520;45.752;4.874;2023-03-23T07:12:12;2.97;;;1.37;;
10934;SDS011;5520;45.752;4.874;2023-03-23T07:14:39;2.50;;;1.30;;
10934;SDS011;5520;45.752;4.874;2023-03-23T07:17:06;2.20;;;1.60;;
10934;SDS011;5520;45.752;4.874;2023-03-23T07:19:33;2.90;;;1.53;;
10934;SDS011;5520;45.752;4.874;2023-03-23T07:22:00;2.87;;;1.50;;
10934;SDS011;5520;45.752;4.874;2023-03-23T07:24:29;4.57;;;1.57;;
10934;SDS011;5520;45.752;4.874;2023-03-23T07:26:56;2.50;;;1.53;;
10934;SDS011;5520;45.752;4.874;2023-03-23T07:29:23;2.67;;;1.77;;
10934;SDS011;5520;45.752;4.874;2023-03-23T07:31:50;2.77;;;1.67;;
10934;SDS011;5520;45.752;4.874;2023-03-23T07:34:17;2.00;;;1.50;;
10934;SDS011;5520;45.752;4.874;2023-03-23T07:36:45;4.87;;;1.90;;
10934;SDS011;5520;45.752;4.874;2023-03-23T07:39:12;3.17;;;1.83;;
10934;SDS011;5520;45.752;4.874;2023-03-23T07:41:40;2.10;;;1.37;;
10934;SDS011;5520;45.752;4.874;2023-03-23T07:44:07;3.27;;;1.57;;
10934;SDS011;5520;45.752;4.874;2023-03-23T07:46:34;12.60;;;2.40;;
10934;SDS011;5520;45.752;4.874;2023-03-23T07:49:01;9.20;;;2.50;;
10934;SDS011;5520;45.752;4.874;2023-03-23T07:51:30;10.70;;;3.17;;
10934;SDS011;5520;45.752;4.874;2023-03-23T07:53:57;2.57;;;1.60;;
10934;SDS011;5520;45.752;4.874;2023-03-23T07:56:24;2.77;;;1.70;;
10934;SDS011;5520;45.752;4.874;2023-03-23T07:58:53;2.13;;;1.87;;
10934;SDS011;5520;45.752;4.874;2023-03-23T08:01:20;3.83;;;1.73;;
10934;SDS011;5520;45.752;4.874;2023-03-23T08:03:48;2.23;;;1.73;;
10934;SDS011;5520;45.752;4.874;2023-03-23T08:06:15;2.97;;;1.70;;
10934;SDS011;5520;45.752;4.874;2023-03-23T08:08:42;3.43;;;1.80;;
10934;SDS011;5520;45.752;4.874;2023-03-23T08:11:09;7.50;;;2.10;;
10934;SDS011;5520;45.752;4.874;2023-03-23T08:13:36;2.27;;;1.37;;
10934;SDS011;5520;45.752;4.874;2023-03-23T08:16:05;5.03;;;1.60;;
10934;SDS011;5520;45.752;4.874;2023-03-23T08:18:34;2.20;;;2.00;;
10934;SDS011;5520;45.752;4.874;2023-03-23T08:21:02;2.83;;;2.07;;
10934;SDS011;5520;45.752;4.874;2023-03-23T08:23:29;9.60;;;3.07;;
10934;SDS011;5520;45.752;4.874;2023-03-23T08:25:56;8.87;;;2.43;;
10934;SDS011;5520;45.752;4.874;2023-03-23T08:28:24;31.53;;;6.27;;
10934;SDS011;5520;45.752;4.874;2023-03-23T08:30:51;16.80;;;3.83;;
10934;SDS011;5520;45.752;4.874;2023-03-23T08:33:19;7.47;;;2.03;;
10934;SDS011;5520;45.752;4.874;2023-03-23T08:35:53;2.27;;;1.70;;
10934;SDS011;5520;45.752;4.874;2023-03-23T08:38:20;3.43;;;1.87;;
10934;SDS011;5520;45.752;4.874;2023-03-23T08:40:47;2.40;;;2.00;;
10934;SDS011;5520;45.752;4.874;2023-03-23T08:43:15;1.90;;;1.67;;
10934;SDS011;5520;45.752;4.874;2023-03-23T08:45:42;2.77;;;1.53;;
10934;SDS011;5520;45.752;4.874;2023-03-23T08:48:09;3.50;;;1.50;;
10934;SDS011;5520;45.752;4.874;2023-03-23T08:50:37;2.80;;;1.87;;
10934;SDS011;5520;45.752;4.874;2023-03-23T08:53:04;5.93;;;1.70;;
10934;SDS011;5520;45.752;4.874;2023-03-23T08:55:32;2.60;;;1.87;;
10934;SDS011;5520;45.752;4.874;2023-03-23T08:58:02;2.33;;;1.73;;
10934;SDS011;5520;45.752;4.874;2023-03-23T09:00:29;2.83;;;1.50;;
10934;SDS011;5520;45.752;4.874;2023-03-23T09:02:57;2.80;;;2.10;;
10934;SDS011;5520;45.752;4.874;2023-03-23T09:05:25;2.30;;;1.40;;
10934;SDS011;5520;45.752;4.874;2023-03-23T09:07:55;3.23;;;1.70;;
10934;SDS011;5520;45.752;4.874;2023-03-23T09:10:24;2.23;;;1.63;;
10934;SDS011;5520;45.752;4.874;2023-03-23T09:12:51;19.77;;;3.67;;
10934;SDS011;5520;45.752;4.874;2023-03-23T09:15:18;13.97;;;3.93;;
10934;SDS011;5520;45.752;4.874;2023-03-23T09:17:46;24.57;;;4.27;;
10934;SDS011;5520;45.752;4.874;2023-03-23T09:20:14;19.00;;;4.30;;
10934;SDS011;5520;45.752;4.874;2023-03-23T09:22:41;5.47;;;2.10;;
10934;SDS011;5520;45.752;4.874;2023-03-23T09:25:11;1.80;;;1.67;;
10934;SDS011;5520;45.752;4.874;2023-03-23T09:27:38;2.50;;;1.83;;
10934;SDS011;5520;45.752;4.874;2023-03-23T09:30:06;4.50;;;1.80;;
10934;SDS011;5520;45.752;4.874;2023-03-23T09:32:33;2.00;;;1.60;;
10934;SDS011;5520;45.752;4.874;2023-03-23T09:35:00;5.67;;;1.97;;
10934;SDS011;5520;45.752;4.874;2023-03-23T09:37:27;4.10;;;1.97;;
10934;SDS011;5520;45.752;4.874;2023-03-23T09:39:54;2.60;;;1.67;;
10934;SDS011;5520;45.752;4.874;2023-03-23T09:42:34;2.73;;;1.60;;
10934;SDS011;5520;45.752;4.874;2023-03-23T09:45:07;1.80;;;1.70;;
10934;SDS011;5520;45.752;4.874;2023-03-23T09:47:37;1.90;;;1.57;;
10934;SDS011;5520;45.752;4.874;2023-03-23T09:50:09;4.27;;;1.77;;
10934;SDS011;5520;45.752;4.874;2023-03-23T09:52:37;3.23;;;1.83;;
10934;SDS011;5520;45.752;4.874;2023-03-23T09:55:07;15.97;;;4.97;;
10934;SDS011;5520;45.752;4.874;2023-03-23T09:57:37;44.00;;;10.30;;
10934;SDS011;5520;45.752;4.874;2023-03-23T10:00:09;42.67;;;11.47;;
10934;SDS011;5520;45.752;4.874;2023-03-23T10:02:41;31.30;;;7.53;;
10934;SDS011;5520;45.752;4.874;2023-03-23T10:05:18;45.03;;;10.47;;
10934;SDS011;5520;45.752;4.874;2023-03-23T10:07:47;38.97;;;9.50;;
10934;SDS011;5520;45.752;4.874;2023-03-23T10:10:14;11.40;;;3.07;;
10934;SDS011;5520;45.752;4.874;2023-03-23T10:12:42;57.83;;;10.63;;
10934;SDS011;5520;45.752;4.874;2023-03-23T10:15:14;2.57;;;2.20;;
10934;SDS011;5520;45.752;4.874;2023-03-23T10:17:46;4.17;;;1.70;;
10934;SDS011;5520;45.752;4.874;2023-03-23T10:20:19;2.87;;;1.80;;
10934;SDS011;5520;45.752;4.874;2023-03-23T10:22:48;2.20;;;2.00;;
10934;SDS011;5520;45.752;4.874;2023-03-23T10:25:18;2.00;;;1.67;;
10934;SDS011;5520;45.752;4.874;2023-03-23T10:27:48;1.87;;;1.60;;
10934;SDS011;5520;45.752;4.874;2023-03-23T10:30:17;3.77;;;1.90;;
10934;SDS011;5520;45.752;4.874;2023-03-23T10:32:47;4.53;;;1.87;;
10934;SDS011;5520;45.752;4.874;2023-03-23T10:35:17;2.53;;;2.10;;
10934;SDS011;5520;45.752;4.874;2023-03-23T10:37:46;4.80;;;1.83;;
10934;SDS011;5520;45.752;4.874;2023-03-23T10:40:15;2.17;;;1.97;;
10934;SDS011;5520;45.752;4.874;2023-03-23T10:42:43;3.47;;;1.87;;
10934;SDS011;5520;45.752;4.874;2023-03-23T10:45:13;2.13;;;2.00;;
10934;SDS011;5520;45.752;4.874;2023-03-23T10:47:43;4.30;;;2.30;;
10934;SDS011;5520;45.752;4.874;2023-03-23T10:50:12;2.83;;;2.10;;
10934;SDS011;5520;45.752;4.874;2023-03-23T10:52:40;4.03;;;2.43;;
10934;SDS011;5520;45.752;4.874;2023-03-23T10:55:08;4.13;;;2.30;;
10934;SDS011;5520;45.752;4.874;2023-03-23T10:57:36;2.67;;;2.30;;
10934;SDS011;5520;45.752;4.874;2023-03-23T11:00:04;4.50;;;2.43;;
10934;SDS011;5520;45.752;4.874;2023-03-23T11:02:37;4.67;;;2.40;;
10934;SDS011;5520;45.752;4.874;2023-03-23T11:05:06;3.53;;;2.70;;
10934;SDS011;5520;45.752;4.874;2023-03-23T11:07:34;2.73;;;2.50;;
10934;SDS011;5520;45.752;4.874;2023-03-23T11:10:15;3.37;;;2.63;;
10934;SDS011;5520;45.752;4.874;2023-03-23T11:12:44;5.40;;;2.80;;
10934;SDS011;5520;45.752;4.874;2023-03-23T11:15:16;3.30;;;3.00;;
10934;SDS011;5520;45.752;4.874;2023-03-23T11:17:55;3.83;;;2.67;;
10934;SDS011;5520;45.752;4.874;2023-03-23T11:20:24;6.10;;;2.57;;
10934;SDS011;5520;45.752;4.874;2023-03-23T11:22:52;3.90;;;2.67;;
10934;SDS011;5520;45.752;4.874;2023-03-23T11:25:19;6.53;;;3.30;;
10934;SDS011;5520;45.752;4.874;2023-03-23T11:27:46;4.73;;;3.07;;
10934;SDS011;5520;45.752;4.874;2023-03-23T11:30:18;4.80;;;3.30;;
10934;SDS011;5520;45.752;4.874;2023-03-23T11:32:46;4.00;;;3.20;;
10934;SDS011;5520;45.752;4.874;2023-03-23T11:35:17;5.83;;;3.17;;
10934;SDS011;5520;45.752;4.874;2023-03-23T11:37:46;4.13;;;3.30;;
10934;SDS011;5520;45.752;4.874;2023-03-23T11:40:14;4.77;;;3.10;;
10934;SDS011;5520;45.752;4.874;2023-03-23T11:42:42;6.63;;;3.97;;
10934;SDS011;5520;45.752;4.874;2023-03-23T11:45:14;4.47;;;3.17;;
10934;SDS011;5520;45.752;4.874;2023-03-23T11:47:42;6.37;;;3.03;;
10934;SDS011;5520;45.752;4.874;2023-03-23T11:50:12;3.93;;;3.27;;
10934;SDS011;5520;45.752;4.874;2023-03-23T11:52:43;4.10;;;2.90;;
10934;SDS011;5520;45.752;4.874;2023-03-23T11:55:13;6.17;;;2.90;;
10934;SDS011;5520;45.752;4.874;2023-03-23T11:57:43;4.60;;;3.80;;
10934;SDS011;5520;45.752;4.874;2023-03-23T12:00:12;6.53;;;3.53;;
10934;SDS011;5520;45.752;4.874;2023-03-23T12:02:42;6.40;;;3.60;;
10934;SDS011;5520;45.752;4.874;2023-03-23T12:05:27;4.03;;;3.20;;
10934;SDS011;5520;45.752;4.874;2023-03-23T12:07:58;3.67;;;2.83;;
10934;SDS011;5520;45.752;4.874;2023-03-23T12:10:29;3.97;;;2.70;;
10934;SDS011;5520;45.752;4.874;2023-03-23T12:13:08;4.30;;;2.33;;
10934;SDS011;5520;45.752;4.874;2023-03-23T12:15:38;3.40;;;2.63;;
10934;SDS011;5520;45.752;4.874;2023-03-23T12:18:10;4.27;;;2.30;;
10934;SDS011;5520;45.752;4.874;2023-03-23T12:20:42;3.33;;;1.93;;
10934;SDS011;5520;45.752;4.874;2023-03-23T12:23:18;3.90;;;2.53;;
10934;SDS011;5520;45.752;4.874;2023-03-23T12:28:32;2.23;;;2.03;;
10934;SDS011;5520;45.752;4.874;2023-03-23T12:31:01;2.70;;;2.50;;
10934;SDS011;5520;45.752;4.874;2023-03-23T12:33:33;3.17;;;2.83;;
10934;SDS011;5520;45.752;4.874;2023-03-23T12:36:05;3.23;;;2.40;;
10934;SDS011;5520;45.752;4.874;2023-03-23T12:38:40;4.10;;;2.07;;
10934;SDS011;5520;45.752;4.874;2023-03-23T12:41:15;2.70;;;2.10;;
10934;SDS011;5520;45.752;4.874;2023-03-23T12:43:45;2.63;;;2.20;;
10934;SDS011;5520;45.752;4.874;2023-03-23T12:46:19;3.20;;;2.50;;
10934;SDS011;5520;45.752;4.874;2023-03-23T12:48:48;2.00;;;1.87;;
10934;SDS011;5520;45.752;4.874;2023-03-23T12:51:19;2.93;;;1.93;;
10934;SDS011;5520;45.752;4.874;2023-03-23T12:53:55;2.40;;;2.20;;
10934;SDS011;5520;45.752;4.874;2023-03-23T12:56:24;2.33;;;2.10;;
10934;SDS011;5520;45.752;4.874;2023-03-23T12:58:53;3.77;;;2.20;;
10934;SDS011;5520;45.752;4.874;2023-03-23T13:01:23;2.87;;;2.53;;
10934;SDS011;5520;45.752;4.874;2023-03-23T13:03:53;3.80;;;2.30;;
10934;SDS011;5520;45.752;4.874;2023-03-23T13:06:24;4.27;;;2.20;;
10934;SDS011;5520;45.752;4.874;2023-03-23T13:08:55;3.83;;;2.00;;
10934;SDS011;5520;45.752;4.874;2023-03-23T13:11:24;3.37;;;2.63;;
10934;SDS011;5520;45.752;4.874;2023-03-23T13:13:52;3.37;;;2.20;;
10934;SDS011;5520;45.752;4.874;2023-03-23T13:16:26;3.03;;;2.20;;
10934;SDS011;5520;45.752;4.874;2023-03-23T13:18:57;2.43;;;2.10;;
10934;SDS011;5520;45.752;4.874;2023-03-23T13:21:27;3.23;;;2.30;;
10934;SDS011;5520;45.752;4.874;2023-03-23T13:23:59;3.57;;;2.60;;
10934;SDS011;5520;45.752;4.874;2023-03-23T13:26:29;4.33;;;2.33;;
10934;SDS011;5520;45.752;4.874;2023-03-23T13:28:56;4.30;;;2.20;;
10934;SDS011;5520;45.752;4.874;2023-03-23T13:31:24;3.83;;;2.50;;
10934;SDS011;5520;45.752;4.874;2023-03-23T13:33:57;4.07;;;2.70;;
10934;SDS011;5520;45.752;4.874;2023-03-23T13:36:26;4.83;;;2.70;;
10934;SDS011;5520;45.752;4.874;2023-03-23T13:38:54;7.70;;;4.13;;
10934;SDS011;5520;45.752;4.874;2023-03-23T13:41:24;4.33;;;2.70;;
10934;SDS011;5520;45.752;4.874;2023-03-23T13:43:51;6.70;;;3.23;;
10934;SDS011;5520;45.752;4.874;2023-03-23T13:46:25;5.33;;;2.77;;
10934;SDS011;5520;45.752;4.874;2023-03-23T13:49:03;5.33;;;2.73;;
10934;SDS011;5520;45.752;4.874;2023-03-23T13:51:34;3.97;;;3.03;;
10934;SDS011;5520;45.752;4.874;2023-03-23T13:54:12;4.17;;;2.77;;
10934;SDS011;5520;45.752;4.874;2023-03-23T13:56:41;3.63;;;2.93;;
10934;SDS011;5520;45.752;4.874;2023-03-23T13:59:13;4.13;;;2.60;;
10934;SDS011;5520;45.752;4.874;2023-03-23T14:01:40;4.23;;;2.50;;
10934;SDS011;5520;45.752;4.874;2023-03-23T14:04:10;5.07;;;3.33;;
10934;SDS011;5520;45.752;4.874;2023-03-23T14:06:37;3.17;;;2.83;;
10934;SDS011;5520;45.752;4.874;2023-03-23T14:09:05;17.77;;;3.17;;
10934;SDS011;5520;45.752;4.874;2023-03-23T14:11:44;3.93;;;3.03;;
10934;SDS011;5520;45.752;4.874;2023-03-23T14:14:15;9.90;;;4.07;;
10934;SDS011;5520;45.752;4.874;2023-03-23T14:16:44;5.80;;;2.60;;
10934;SDS011;5520;45.752;4.874;2023-03-23T14:19:15;3.17;;;2.90;;
10934;SDS011;5520;45.752;4.874;2023-03-23T14:21:48;8.83;;;3.80;;
10934;SDS011;5520;45.752;4.874;2023-03-23T14:24:16;4.43;;;3.30;;
10934;SDS011;5520;45.752;4.874;2023-03-23T14:26:43;5.10;;;3.30;;
10934;SDS011;5520;45.752;4.874;2023-03-23T14:29:11;3.20;;;2.90;;
10934;SDS011;5520;45.752;4.874;2023-03-23T14:31:40;4.27;;;3.27;;
10934;SDS011;5520;45.752;4.874;2023-03-23T14:34:10;5.97;;;3.37;;
10934;SDS011;5520;45.752;4.874;2023-03-23T14:36:38;6.13;;;3.43;;
10934;SDS011;5520;45.752;4.874;2023-03-23T14:39:07;6.17;;;3.57;;
10934;SDS011;5520;45.752;4.874;2023-03-23T14:41:38;3.87;;;3.30;;
10934;SDS011;5520;45.752;4.874;2023-03-23T14:44:06;6.80;;;3.17;;
10934;SDS011;5520;45.752;4.874;2023-03-23T14:46:33;5.27;;;3.27;;
10934;SDS011;5520;45.752;4.874;2023-03-23T14:49:02;7.53;;;3.43;;
10934;SDS011;5520;45.752;4.874;2023-03-23T14:51:29;4.87;;;3.40;;
10934;SDS011;5520;45.752;4.874;2023-03-23T14:53:57;3.47;;;2.97;;
10934;SDS011;5520;45.752;4.874;2023-03-23T14:56:30;4.33;;;2.97;;
10934;SDS011;5520;45.752;4.874;2023-03-23T14:59:02;4.80;;;3.00;;
10934;SDS011;5520;45.752;4.874;2023-03-23T15:01:29;4.87;;;3.13;;
10934;SDS011;5520;45.752;4.874;2023-03-23T15:03:58;3.60;;;2.77;;
10934;SDS011;5520;45.752;4.874;2023-03-23T15:06:28;7.10;;;3.27;;
10934;SDS011;5520;45.752;4.874;2023-03-23T15:08:56;6.40;;;3.10;;
10934;SDS011;5520;45.752;4.874;2023-03-23T15:11:24;3.83;;;3.10;;
10934;SDS011;5520;45.752;4.874;2023-03-23T15:13:52;3.97;;;2.93;;
10934;SDS011;5520;45.752;4.874;2023-03-23T15:16:21;3.27;;;2.97;;
10934;SDS011;5520;45.752;4.874;2023-03-23T15:18:49;3.03;;;2.73;;
10934;SDS011;5520;45.752;4.874;2023-03-23T15:21:20;5.53;;;3.50;;